Time;durP1;ratioP1;P1;durP2;ratioP2;P2;SDS_P1;SDS_P2;PMS_P1;PMS_P2;Temp;Humidity;BMP_temperature;BMP_pressure;BME280_temperature;BME280_humidity;BME280_pressure;Samples;Min_cycle;Max_cycle;Signal;HPM_P1;HPM_P2
2020/12/26 00:02:21;;;;;;;39.98;16.57;;;;;;;7.50;100.00;100409.92;1751098;82;21045;-53
2020/12/26 00:04:50;;;;;;;36.95;15.78;;;;;;;7.49;100.00;100399.31;1751117;81;21588;-54
2020/12/26 00:07:17;;;;;;;35.55;15.18;;;;;;;7.50;100.00;100418.41;1751021;82;21376;-53
2020/12/26 00:09:45;;;;;;;33.80;14.07;;;;;;;7.52;100.00;100410.78;1750919;82;21069;-54
2020/12/26 00:12:14;;;;;;;30.62;13.78;;;;;;;7.54;100.00;100421.39;1750777;82;21129;-54
2020/12/26 00:14:42;;;;;;;35.08;14.47;;;;;;;7.55;100.00;100413.80;1750958;82;21129;-54
2020/12/26 00:17:09;;;;;;;28.20;14.10;;;;;;;7.58;100.00;100415.05;1751007;82;21078;-54
2020/12/26 00:19:39;;;;;;;26.55;14.20;;;;;;;7.57;100.00;100417.30;1750935;82;20915;-53
2020/12/26 00:22:07;;;;;;;30.82;14.55;;;;;;;7.57;100.00;100405.30;1750951;82;21069;-53
2020/12/26 00:24:34;;;;;;;24.92;12.47;;;;;;;7.56;100.00;100396.87;1750965;82;21105;-53
2020/12/26 00:27:02;;;;;;;28.02;12.35;;;;;;;7.55;100.00;100409.80;1750951;82;21137;-54
2020/12/26 00:29:29;;;;;;;24.27;12.80;;;;;;;7.53;100.00;100406.30;1751040;81;21042;-54
2020/12/26 00:31:57;;;;;;;23.15;11.90;;;;;;;7.52;100.00;100411.23;1750948;82;21386;-53
2020/12/26 00:34:24;;;;;;;21.95;12.13;;;;;;;7.51;100.00;100418.81;1750947;82;21144;-52
2020/12/26 00:36:52;;;;;;;24.67;12.05;;;;;;;7.50;100.00;100406.39;1750990;81;21166;-53
2020/12/26 00:39:20;;;;;;;24.75;12.25;;;;;;;7.47;100.00;100407.81;1750917;82;21081;-52
2020/12/26 00:41:50;;;;;;;22.67;12.03;;;;;;;7.50;100.00;100409.06;1750991;82;21165;-53
2020/12/26 00:44:17;;;;;;;25.30;12.25;;;;;;;7.48;100.00;100414.91;1750936;82;21211;-53
2020/12/26 00:46:45;;;;;;;22.70;11.83;;;;;;;7.45;100.00;100422.08;1750896;82;21105;-53
2020/12/26 00:49:13;;;;;;;21.12;11.48;;;;;;;7.44;100.00;100418.99;1750934;82;21137;-53
2020/12/26 00:51:41;;;;;;;28.42;12.30;;;;;;;7.38;100.00;100413.80;1750918;82;21152;-54
2020/12/26 00:54:09;;;;;;;22.87;11.33;;;;;;;7.42;100.00;100427.94;1750933;82;21045;-53
2020/12/26 00:56:38;;;;;;;18.07;9.63;;;;;;;7.40;100.00;100429.30;1748799;82;21446;-53
2020/12/26 00:59:06;;;;;;;21.15;10.25;;;;;;;7.38;100.00;100443.14;1747195;82;21086;-52
2020/12/26 01:01:35;;;;;;;21.20;10.45;;;;;;;7.39;100.00;100419.55;1747254;82;21082;-53
2020/12/26 01:04:07;;;;;;;21.60;11.08;;;;;;;7.40;100.00;100429.30;1747149;82;21081;-53
2020/12/26 01:06:36;;;;;;;18.55;9.43;;;;;;;7.40;100.00;100439.97;1747338;82;21074;-53
2020/12/26 01:09:03;;;;;;;18.50;9.15;;;;;;;7.42;99.71;100427.50;1747245;82;21147;-54
2020/12/26 01:11:31;;;;;;;20.45;9.93;;;;;;;7.42;99.64;100436.83;1747149;82;21125;-53
2020/12/26 01:13:59;;;;;;;14.98;8.53;;;;;;;7.42;99.07;100443.50;1747275;81;21541;-53
2020/12/26 01:16:27;;;;;;;15.25;8.55;;;;;;;7.40;98.83;100451.12;1747244;82;21212;-52
2020/12/26 01:18:54;;;;;;;18.37;9.03;;;;;;;7.38;98.41;100448.48;1747393;82;21176;-53
2020/12/26 01:21:22;;;;;;;16.42;8.43;;;;;;;7.36;98.26;100451.64;1747255;81;21530;-53
2020/12/26 01:23:49;;;;;;;15.10;8.10;;;;;;;7.34;98.11;100460.14;1747202;82;21200;-52
2020/12/26 01:26:16;;;;;;;13.95;8.23;;;;;;;7.35;97.89;100447.23;1747212;82;21169;-52
2020/12/26 01:28:45;;;;;;;16.48;8.53;;;;;;;7.33;97.89;100461.54;1747196;82;21148;-53
2020/12/26 01:31:13;;;;;;;17.02;7.53;;;;;;;7.32;98.04;100455.31;1747309;81;21541;-52
2020/12/26 01:33:41;;;;;;;15.20;7.53;;;;;;;7.33;98.08;100458.40;1747188;82;21432;-53
2020/12/26 01:36:13;;;;;;;15.60;8.68;;;;;;;7.34;98.02;100469.48;1721090;80;21061;-52
2020/12/26 01:38:40;;;;;;;14.07;7.47;;;;;;;7.32;97.84;100477.98;1773881;80;21060;-53
2020/12/26 01:41:08;;;;;;;13.18;7.25;;;;;;;7.30;97.92;100483.38;1756608;81;21066;-52
2020/12/26 01:43:37;;;;;;;14.20;6.62;;;;;;;7.29;98.01;100473.63;1776683;80;21047;-53
2020/12/26 01:46:04;;;;;;;14.10;6.95;;;;;;;7.26;98.14;100486.15;1756561;81;21155;-53
2020/12/26 01:48:32;;;;;;;11.97;6.58;;;;;;;7.24;98.36;100477.31;1776643;80;21106;-53
2020/12/26 01:50:59;;;;;;;11.97;7.10;;;;;;;7.22;98.51;100505.81;1756574;81;21066;-53
2020/12/26 01:53:27;;;;;;;15.28;7.25;;;;;;;7.20;98.64;100499.64;1770529;81;21079;-53
2020/12/26 01:55:54;;;;;;;11.30;6.40;;;;;;;7.16;98.68;100513.02;1756779;81;21106;-53
2020/12/26 01:58:22;;;;;;;13.75;6.83;;;;;;;7.16;98.70;100526.36;1776372;80;21703;-52
2020/12/26 02:00:49;;;;;;;13.45;6.90;;;;;;;7.14;98.76;100518.86;1792397;80;20946;-54
2020/12/26 02:03:17;;;;;;;13.72;7.45;;;;;;;7.14;98.98;100521.52;1792423;80;21061;-53
2020/12/26 02:05:44;;;;;;;16.80;7.15;;;;;;;7.15;99.45;100527.75;1792407;80;21117;-53
2020/12/26 02:08:13;;;;;;;16.07;7.70;;;;;;;7.12;99.80;100538.02;1792643;80;21121;-53
2020/12/26 02:10:42;;;;;;;20.92;8.68;;;;;;;7.11;100.00;100549.59;1792642;80;21855;-53
2020/12/26 02:13:10;;;;;;;19.80;9.20;;;;;;;7.05;100.00;100552.41;1792635;80;21527;-52
2020/12/26 02:15:37;;;;;;;16.37;8.48;;;;;;;6.97;100.00;100536.59;1792636;80;21149;-53
2020/12/26 02:18:04;;;;;;;16.45;8.30;;;;;;;6.84;100.00;100548.00;1792647;80;21184;-53
2020/12/26 02:20:35;;;;;;;14.65;8.33;;;;;;;6.84;100.00;100548.00;1791964;80;21136;-53
2020/12/26 02:23:03;;;;;;;17.62;9.75;;;;;;;6.80;100.00;100556.98;1792524;80;21394;-53
2020/12/26 02:25:32;;;;;;;18.10;8.63;;;;;;;6.76;100.00;100547.75;1792602;80;21113;-53
2020/12/26 02:28:02;;;;;;;21.48;9.85;;;;;;;6.74;100.00;100549.10;1792612;80;21109;-53
2020/12/26 02:30:32;;;;;;;20.97;10.45;;;;;;;6.74;100.00;100553.98;1792560;80;21486;-54
2020/12/26 02:33:00;;;;;;;23.83;11.18;;;;;;;6.72;100.00;100539.83;1792526;80;21492;-53
2020/12/26 02:35:28;;;;;;;25.45;12.65;;;;;;;6.71;100.00;100545.17;1792587;80;21254;-54
2020/12/26 02:37:56;;;;;;;23.98;12.78;;;;;;;6.70;100.00;100554.08;1767310;80;21072;-53
2020/12/26 02:40:24;;;;;;;34.92;15.08;;;;;;;6.68;100.00;100559.91;1776510;80;21115;-54
2020/12/26 02:42:52;;;;;;;25.75;12.88;;;;;;;6.69;100.00;100554.99;1759711;81;21121;-53
2020/12/26 02:45:19;;;;;;;29.07;13.45;;;;;;;6.65;100.00;100562.20;1776519;80;21087;-53
2020/12/26 02:47:47;;;;;;;19.90;10.00;;;;;;;6.65;100.00;100562.20;1759674;81;21810;-53
2020/12/26 02:50:14;;;;;;;24.72;10.30;;;;;;;6.53;100.00;100573.10;1776483;80;21135;-53
2020/12/26 02:52:41;;;;;;;16.70;9.80;;;;;;;6.53;100.00;100573.10;1759792;81;22344;-53
2020/12/26 02:55:09;;;;;;;20.23;9.20;;;;;;;6.52;100.00;100596.22;1759626;81;21489;-53
2020/12/26 02:57:37;;;;;;;16.17;8.88;;;;;;;6.49;100.00;100600.25;1758119;81;21157;-53
2020/12/26 03:00:05;;;;;;;16.45;9.70;;;;;;;6.48;100.00;100609.62;1757455;81;21702;-52
2020/12/26 03:02:33;;;;;;;18.42;9.50;;;;;;;6.44;100.00;100592.38;1757480;81;21585;-53
2020/12/26 03:05:00;;;;;;;15.00;7.92;;;;;;;6.29;100.00;100581.55;1757540;81;21137;-53
2020/12/26 03:07:28;;;;;;;10.15;5.55;;;;;;;6.29;100.00;100581.55;1757495;81;21093;-53
2020/12/26 03:09:55;;;;;;;8.73;4.62;;;;;;;5.63;98.12;100592.92;1757440;81;21134;-52
2020/12/26 03:12:23;;;;;;;9.23;4.60;;;;;;;5.63;98.12;100592.92;1757441;81;21773;-53
2020/12/26 03:14:51;;;;;;;8.95;5.67;;;;;;;5.32;99.02;100598.76;1757333;81;21156;-53
2020/12/26 03:17:19;;;;;;;9.93;5.15;;;;;;;5.10;100.00;100584.47;1757466;81;21066;-53
2020/12/26 03:19:47;;;;;;;10.82;5.58;;;;;;;4.98;100.00;100595.30;1757390;81;21081;-53
2020/12/26 03:22:14;;;;;;;14.83;8.85;;;;;;;4.88;100.00;100592.75;1757452;81;21089;-53
2020/12/26 03:24:42;;;;;;;10.78;6.15;;;;;;;4.81;100.00;100593.74;1757434;81;21371;-53
2020/12/26 03:27:10;;;;;;;8.18;4.78;;;;;;;4.72;100.00;100600.06;1757374;81;21070;-53
2020/12/26 03:29:39;;;;;;;8.15;5.08;;;;;;;4.66;100.00;100597.92;1757482;81;21066;-53
2020/12/26 03:32:06;;;;;;;9.83;5.12;;;;;;;4.63;100.00;100600.16;1757375;81;21061;-53
2020/12/26 03:34:34;;;;;;;9.05;5.35;;;;;;;4.61;100.00;100615.23;1757442;81;21113;-53
2020/12/26 03:37:01;;;;;;;9.03;5.47;;;;;;;4.58;100.00;100589.62;1758109;81;21386;-53
2020/12/26 03:39:29;;;;;;;8.83;5.20;;;;;;;4.58;100.00;100612.19;1758968;81;21073;-53
2020/12/26 03:41:56;;;;;;;7.83;5.25;;;;;;;4.60;100.00;100605.52;1759068;81;21078;-53
2020/12/26 03:44:24;;;;;;;23.55;5.90;;;;;;;4.59;100.00;100598.01;1759037;81;21125;-53
2020/12/26 03:46:51;;;;;;;8.20;4.83;;;;;;;4.61;100.00;100593.98;1759008;81;21120;-52
2020/12/26 03:49:19;;;;;;;7.95;5.10;;;;;;;4.63;100.00;100593.98;1759122;81;21433;-53
2020/12/26 03:51:46;;;;;;;9.33;5.12;;;;;;;4.63;100.00;100601.95;1759018;81;21073;-53
2020/12/26 03:54:14;;;;;;;13.48;5.30;;;;;;;4.63;100.00;100591.33;1758978;81;21097;-53
2020/12/26 03:56:42;;;;;;;10.40;5.60;;;;;;;4.62;100.00;100592.23;1759713;80;21581;-53
2020/12/26 03:59:10;;;;;;;10.23;5.53;;;;;;;4.63;100.00;100599.30;1778968;80;21479;-53
2020/12/26 04:01:38;;;;;;;7.97;5.15;;;;;;;4.61;100.00;100619.69;1755597;81;21412;-53
2020/12/26 04:04:06;;;;;;;10.90;5.28;;;;;;;4.53;100.00;100623.33;1755561;81;21532;-52
2020/12/26 04:06:33;;;;;;;16.37;5.20;;;;;;;4.49;100.00;100608.30;1755629;81;21429;-53
2020/12/26 04:09:01;;;;;;;10.70;4.50;;;;;;;4.45;100.00;100621.19;1755551;81;21212;-53
2020/12/26 04:11:29;;;;;;;10.30;4.03;;;;;;;4.42;100.00;100631.84;1755558;81;21147;-54
2020/12/26 04:13:57;;;;;;;6.15;3.65;;;;;;;4.38;100.00;100646.05;1755446;81;21705;-53
2020/12/26 04:16:25;;;;;;;6.03;3.47;;;;;;;4.34;100.00;100640.36;1755500;81;21170;-53
2020/12/26 04:18:52;;;;;;;13.43;3.62;;;;;;;4.28;100.00;100640.83;1755506;81;21126;-53
2020/12/26 04:21:23;;;;;;;7.03;3.90;;;;;;;4.23;100.00;100637.34;1755597;81;21130;-53
2020/12/26 04:23:54;;;;;;;7.78;4.45;;;;;;;4.20;100.00;100628.10;1755561;81;21166;-53
2020/12/26 04:26:21;;;;;;;9.20;4.35;;;;;;;4.14;100.00;100648.94;1755589;81;21383;-52
2020/12/26 04:28:49;;;;;;;6.53;3.52;;;;;;;4.07;100.00;100627.35;1755490;81;21086;-53
2020/12/26 04:31:18;;;;;;;4.90;3.72;;;;;;;4.01;100.00;100641.55;1755480;81;21078;-53
2020/12/26 04:33:45;;;;;;;9.23;3.95;;;;;;;3.96;100.00;100655.73;1755540;81;21188;-52
2020/12/26 04:36:13;;;;;;;8.20;4.08;;;;;;;3.91;100.00;100666.41;1757094;80;21162;-53
2020/12/26 04:38:40;;;;;;;10.00;4.40;;;;;;;3.90;100.00;100686.31;1760513;81;22250;-53
2020/12/26 04:41:08;;;;;;;4.53;3.33;;;;;;;3.86;100.00;100694.73;1774402;80;21065;-53
2020/12/26 04:43:36;;;;;;;6.22;3.15;;;;;;;3.83;100.00;100684.14;1760367;81;21077;-52
2020/12/26 04:46:08;;;;;;;4.42;2.87;;;;;;;3.79;100.00;100677.11;1774447;80;21140;-53
2020/12/26 04:48:36;;;;;;;7.42;3.20;;;;;;;3.73;100.00;100665.67;1760444;81;21101;-52
2020/12/26 04:51:03;;;;;;;5.72;3.30;;;;;;;3.69;100.00;100665.70;1774500;80;21445;-53
2020/12/26 04:53:34;;;;;;;5.65;3.42;;;;;;;3.66;100.00;100667.95;1760280;81;21161;-53
2020/12/26 04:56:02;;;;;;;7.05;4.25;;;;;;;3.66;100.00;100673.68;1774314;80;21189;-53
2020/12/26 04:58:30;;;;;;;4.50;3.00;;;;;;;3.65;100.00;100696.69;1756027;81;21038;-53
2020/12/26 05:00:58;;;;;;;4.67;3.25;;;;;;;3.63;100.00;100686.50;1771226;81;21067;-53
2020/12/26 05:03:27;;;;;;;5.70;3.42;;;;;;;3.62;100.00;100704.63;1754716;81;21730;-53
2020/12/26 05:06:05;;;;;;;4.90;2.92;;;;;;;3.61;100.00;100705.52;1771216;81;21166;-53
2020/12/26 05:08:33;;;;;;;3.67;2.75;;;;;;;3.60;100.00;100711.72;1725050;81;21124;-52
2020/12/26 05:11:01;;;;;;;5.08;3.10;;;;;;;3.62;100.00;100731.14;1739472;82;21189;-53
2020/12/26 05:13:29;;;;;;;7.30;3.27;;;;;;;3.63;100.00;100707.71;1717713;83;21125;-53
2020/12/26 05:15:56;;;;;;;6.50;3.25;;;;;;;3.61;100.00;100720.57;1739496;82;21700;-53
2020/12/26 05:18:24;;;;;;;9.00;3.52;;;;;;;3.58;100.00;100725.00;1717596;83;21149;-53
2020/12/26 05:20:51;;;;;;;11.35;2.45;;;;;;;3.56;100.00;100747.09;1739568;82;21192;-53
2020/12/26 05:23:19;;;;;;;7.15;3.70;;;;;;;3.50;100.00;100747.14;1666736;83;21546;-53
2020/12/26 05:25:49;;;;;;;6.55;3.00;;;;;;;3.43;100.00;100760.45;1739483;82;21066;-53
2020/12/26 05:28:21;;;;;;;6.83;2.60;;;;;;;3.34;100.00;100759.14;1751784;81;22095;-53
2020/12/26 05:30:50;;;;;;;3.25;2.52;;;;;;;3.27;100.00;100770.67;1731048;82;21106;-52
2020/12/26 05:33:18;;;;;;;2.83;2.40;;;;;;;3.21;100.00;100744.22;1731103;82;21074;-54
2020/12/26 05:35:49;;;;;;;5.05;2.17;;;;;;;3.18;100.00;100762.75;1731138;82;21075;-53
2020/12/26 05:38:21;;;;;;;4.08;2.40;;;;;;;3.17;100.00;100768.51;1767635;81;21155;-53
2020/12/26 05:41:00;;;;;;;11.28;2.40;;;;;;;3.17;100.00;100779.53;1754664;81;21266;-53
2020/12/26 05:43:31;;;;;;;4.10;3.05;;;;;;;3.19;100.00;100776.43;1771180;81;21088;-52
2020/12/26 05:45:59;;;;;;;3.47;2.40;;;;;;;3.18;100.00;100801.16;1754767;81;21590;-53
2020/12/26 05:48:27;;;;;;;10.00;2.80;;;;;;;3.12;100.00;100784.88;1771201;81;21139;-52
2020/12/26 05:50:57;;;;;;;9.05;2.60;;;;;;;3.07;100.00;100804.75;1754664;81;21153;-52
2020/12/26 05:53:27;;;;;;;6.80;2.83;;;;;;;3.02;100.00;100797.27;1770859;81;39415;-53
2020/12/26 05:55:55;;;;;;;6.87;2.52;;;;;;;3.00;100.00;100819.77;1754534;81;21136;-52
2020/12/26 05:58:25;;;;;;;16.45;9.80;;;;;;;2.98;100.00;100844.06;1772919;80;21130;-52
2020/12/26 06:00:59;;;;;;;9.85;5.80;;;;;;;2.96;100.00;100839.64;1760362;81;21105;-52
2020/12/26 06:06:09;;;;;;;4.43;3.17;;;;;;;2.95;100.00;100872.31;1873273;76;38271;-53
2020/12/26 06:08:37;;;;;;;3.92;2.80;;;;;;;2.89;100.00;100881.59;1860288;77;20874;-53
2020/12/26 06:11:05;;;;;;;4.67;2.90;;;;;;;2.88;100.00;100866.59;1860243;77;21376;-53
2020/12/26 06:13:38;;;;;;;6.37;3.37;;;;;;;2.86;100.00;100866.58;1860151;77;21023;-53
2020/12/26 06:16:20;;;;;;;5.47;2.70;;;;;;;2.85;100.00;100873.66;1860438;77;20997;-53
2020/12/26 06:18:58;;;;;;;3.92;2.42;;;;;;;2.85;100.00;100904.11;1860278;77;20913;-53
2020/12/26 06:21:26;;;;;;;3.90;2.58;;;;;;;2.83;100.00;100882.05;1860250;77;20965;-53
2020/12/26 06:23:54;;;;;;;3.62;2.35;;;;;;;2.83;100.00;100874.11;1860197;77;21362;-52
2020/12/26 06:26:21;;;;;;;5.85;2.90;;;;;;;2.79;100.00;100873.67;1860256;77;21472;-53
2020/12/26 06:28:49;;;;;;;5.60;2.70;;;;;;;2.75;100.00;100890.42;1848832;75;20908;-53
2020/12/26 06:31:16;;;;;;;4.33;2.77;;;;;;;2.74;100.00;100904.55;1898626;75;20975;-53
2020/12/26 06:33:48;;;;;;;4.03;2.60;;;;;;;2.75;100.00;100898.82;1825706;78;21125;-53
2020/12/26 06:36:19;;;;;;;7.30;2.90;;;;;;;2.74;100.00;100905.86;1854614;77;21327;-53
2020/12/26 06:38:46;;;;;;;3.55;2.52;;;;;;;2.73;100.00;100905.42;1789786;80;21019;-53
2020/12/26 06:41:15;;;;;;;4.53;3.10;;;;;;;2.71;100.00;100921.33;1774712;80;21118;-53
2020/12/26 06:43:55;;;;;;;8.10;2.90;;;;;;;2.67;100.00;100914.28;1774642;80;21439;-53
2020/12/26 06:46:34;;;;;;;7.45;2.98;;;;;;;2.67;100.00;100942.50;1774456;80;21181;-52
2020/12/26 06:49:01;;;;;;;5.55;3.02;;;;;;;2.64;100.00;100949.98;1774683;80;21378;-53
2020/12/26 06:51:34;;;;;;;9.73;3.50;;;;;;;2.62;100.00;100964.12;1774627;80;21079;-53
2020/12/26 06:54:07;;;;;;;5.17;3.05;;;;;;;2.58;100.00;100936.33;1774546;80;21103;-52
2020/12/26 06:56:45;;;;;;;5.78;3.02;;;;;;;2.58;100.00;100941.63;1774578;80;21121;-54
2020/12/26 06:59:13;;;;;;;4.35;3.00;;;;;;;2.61;100.00;100947.80;1774677;80;21150;-53
2020/12/26 07:01:44;;;;;;;9.23;3.20;;;;;;;2.64;100.00;100947.80;1774589;80;21148;-53
2020/12/26 07:04:17;;;;;;;5.83;2.67;;;;;;;2.65;100.00;100948.23;1774456;80;21590;-53
2020/12/26 07:06:48;;;;;;;5.08;2.95;;;;;;;2.65;100.00;100960.16;1774607;80;21130;-53
2020/12/26 07:09:19;;;;;;;6.83;3.08;;;;;;;2.64;100.00;100988.38;1774640;80;21138;-53
2020/12/26 07:11:51;;;;;;;7.03;2.62;;;;;;;2.65;100.00;100968.09;1774629;80;21114;-53
2020/12/26 07:14:38;;;;;;;3.50;2.62;;;;;;;2.66;100.00;100961.49;1774673;80;21490;-53
2020/12/26 07:17:16;;;;;;;7.47;2.37;;;;;;;2.70;100.00;100959.70;1774149;80;21114;-53
2020/12/26 07:19:51;;;;;;;3.80;2.55;;;;;;;2.72;99.56;100964.56;1774065;80;20980;-54
2020/12/26 07:22:29;;;;;;;5.53;3.50;;;;;;;2.75;99.14;100961.91;1774179;80;20925;-53
2020/12/26 07:25:02;;;;;;;9.88;3.52;;;;;;;2.77;98.66;100957.53;1774018;80;21043;-53
2020/12/26 07:27:37;;;;;;;5.10;3.17;;;;;;;2.79;98.20;100942.95;1774076;80;21369;-53
2020/12/26 07:30:15;;;;;;;3.65;2.70;;;;;;;2.82;98.05;100953.11;1774097;80;21094;-53
2020/12/26 07:32:53;;;;;;;6.03;2.50;;;;;;;2.84;97.43;100954.41;1774098;80;21039;-54
2020/12/26 07:35:27;;;;;;;5.22;2.45;;;;;;;2.89;97.38;100962.37;1773507;80;21181;-53
2020/12/26 07:38:09;;;;;;;4.55;2.37;;;;;;;2.93;96.76;100957.52;1783120;79;21099;-54
2020/12/26 07:40:45;;;;;;;8.73;2.60;;;;;;;2.96;96.08;100962.80;1818690;78;22126;-54
2020/12/26 07:43:17;;;;;;;9.68;2.92;;;;;;;2.98;95.55;100959.28;1800930;78;21364;-54
2020/12/26 07:45:46;;;;;;;4.95;2.83;;;;;;;2.99;95.02;100984.02;1758230;81;21567;-53
2020/12/26 07:48:14;;;;;;;4.90;2.65;;;;;;;3.00;95.11;100972.09;1789435;80;21169;-53
2020/12/26 07:50:43;;;;;;;6.85;3.05;;;;;;;3.03;94.79;100990.19;1789761;78;21599;-53
2020/12/26 07:53:13;;;;;;;6.47;3.00;;;;;;;3.04;94.56;100979.59;1770179;79;21345;-54
2020/12/26 07:55:40;;;;;;;6.33;3.50;;;;;;;3.05;94.03;100973.42;1795063;78;20943;-53
2020/12/26 07:58:13;;;;;;;6.62;3.20;;;;;;;3.05;93.58;100984.02;1792100;78;21112;-54
2020/12/26 08:00:45;;;;;;;7.20;3.35;;;;;;;3.07;94.08;100987.55;1800421;78;21523;-53
2020/12/26 08:03:14;;;;;;;5.03;3.25;;;;;;;3.12;93.80;100996.37;1799118;77;21121;-53
2020/12/26 08:05:47;;;;;;;6.40;3.75;;;;;;;3.15;93.17;100996.36;1793979;78;21356;-53
2020/12/26 08:08:27;;;;;;;7.22;3.87;;;;;;;3.19;93.28;100985.75;1740720;80;21490;-54
2020/12/26 08:11:03;;;;;;;11.55;4.17;;;;;;;3.23;92.93;100987.55;1806952;78;21106;-53
2020/12/26 08:13:37;;;;;;;10.08;3.70;;;;;;;3.23;92.47;100994.17;1758499;80;21078;-54
2020/12/26 08:16:19;;;;;;;10.05;4.12;;;;;;;3.25;92.90;100991.94;1799500;77;21211;-53
2020/12/26 08:18:48;;;;;;;7.85;4.20;;;;;;;3.31;92.65;100985.76;1808575;78;21200;-54
2020/12/26 08:21:28;;;;;;;8.33;4.50;;;;;;;3.37;92.33;100999.00;1804784;78;21146;-53
2020/12/26 08:24:07;;;;;;;8.15;3.90;;;;;;;3.42;92.21;100980.44;1768859;79;21067;-53
2020/12/26 08:26:42;;;;;;;9.95;5.47;;;;;;;3.52;92.01;100970.70;1764713;79;21114;-53
2020/12/26 08:29:17;;;;;;;6.92;3.80;;;;;;;3.62;91.27;100991.00;1796163;77;21079;-53
2020/12/26 08:32:02;;;;;;;5.87;3.70;;;;;;;3.70;90.45;100993.20;1793177;79;22169;-54
2020/12/26 08:34:56;;;;;;;5.50;3.35;;;;;;;3.79;89.74;100986.09;1754664;79;22450;-54
2020/12/26 08:37:32;;;;;;;4.95;3.17;;;;;;;3.86;88.32;100999.34;1804588;79;21137;-54
2020/12/26 08:40:17;;;;;;;4.58;3.42;;;;;;;3.91;87.41;101005.07;1792749;77;21169;-54
2020/12/26 08:42:55;;;;;;;5.35;3.47;;;;;;;3.92;87.28;101006.41;1737094;79;21130;-52
2020/12/26 08:45:34;;;;;;;9.00;3.45;;;;;;;3.92;86.42;101014.36;1793367;79;21209;-53
2020/12/26 08:48:19;;;;;;;6.05;3.22;;;;;;;3.90;86.22;101021.45;1762406;79;21213;-53
2020/12/26 08:50:59;;;;;;;4.60;3.10;;;;;;;3.89;86.12;101029.39;1795638;77;21118;-53
2020/12/26 08:53:43;;;;;;;8.00;4.08;;;;;;;3.84;85.79;101014.81;1793621;79;21125;-53
2020/12/26 08:56:39;;;;;;;6.12;3.87;;;;;;;3.82;86.26;100999.34;1783387;79;20995;-54
2020/12/26 08:59:40;;;;;;;5.70;3.67;;;;;;;3.84;86.60;100997.56;1877814;75;22667;-52
2020/12/26 09:02:16;;;;;;;6.53;3.30;;;;;;;3.78;86.65;101004.23;1734201;80;21595;-54
2020/12/26 09:04:50;;;;;;;6.97;3.60;;;;;;;3.78;87.01;101001.58;1746972;80;22280;-54
2020/12/26 09:07:26;;;;;;;5.28;3.40;;;;;;;3.82;87.39;100998.02;1834794;77;21118;-54
2020/12/26 09:09:56;;;;;;;7.03;3.75;;;;;;;3.84;87.12;101009.50;1817425;77;21035;-53
2020/12/26 09:12:37;;;;;;;5.20;3.52;;;;;;;3.85;87.09;101008.61;1837708;77;21039;-53
2020/12/26 09:15:07;;;;;;;6.37;3.83;;;;;;;3.88;87.18;101013.94;1848623;77;20904;-53
2020/12/26 09:17:48;;;;;;;6.25;3.52;;;;;;;3.90;86.29;101020.13;1808916;77;21428;-53
2020/12/26 09:20:21;;;;;;;6.90;4.20;;;;;;;3.91;86.62;101003.31;1835223;77;20931;-53
2020/12/26 09:22:50;;;;;;;6.03;4.00;;;;;;;3.95;86.47;101015.67;1847411;77;21022;-54
2020/12/26 09:25:36;;;;;;;9.50;4.37;;;;;;;3.98;86.08;101028.92;1801144;77;21071;-53
2020/12/26 09:28:14;;;;;;;6.45;3.80;;;;;;;3.98;86.54;101028.92;1805935;77;21549;-53
2020/12/26 09:30:49;;;;;;;7.78;3.92;;;;;;;3.99;86.14;101005.48;1801267;77;21258;-53
2020/12/26 09:33:35;;;;;;;8.63;3.65;;;;;;;3.98;86.38;101003.72;1845919;77;21011;-54
2020/12/26 09:36:10;;;;;;;;;;;;;;;3.96;85.33;101022.74;1799972;77;21093;-53
2020/12/26 09:38:48;;;;;;;8.35;3.70;;;;;;;3.92;85.22;101027.63;1796240;79;20235;-56
2020/12/26 09:41:25;;;;;;;5.53;4.20;;;;;;;3.87;85.34;101018.81;1819496;77;21447;-53
2020/12/26 09:44:03;;;;;;;7.72;4.17;;;;;;;3.86;85.62;101030.27;1791440;77;21144;-53
2020/12/26 09:47:06;;;;;;;5.65;3.77;;;;;;;3.86;86.11;101038.23;1810157;77;21482;-53
2020/12/26 09:49:43;;;;;;;9.58;5.10;;;;;;;3.92;86.66;101050.17;1809249;77;21142;-55
2020/12/26 09:52:14;;;;;;;6.70;3.70;;;;;;;3.99;86.94;101037.32;1824780;77;21119;-53
2020/12/26 09:54:47;;;;;;;12.03;4.60;;;;;;;4.06;86.72;101040.84;1830450;77;21110;-54
2020/12/26 09:57:16;;;;;;;8.28;4.78;;;;;;;4.08;86.36;101027.13;1786555;77;23086;-53
2020/12/26 09:59:45;;;;;;;6.62;4.03;;;;;;;4.10;86.04;101033.30;1835472;77;20988;-53
2020/12/26 10:02:18;;;;;;;10.80;5.75;;;;;;;4.11;85.08;101043.49;1814446;77;21086;-54
2020/12/26 10:04:48;;;;;;;9.73;4.25;;;;;;;4.10;85.69;101051.02;1829055;77;21047;-54
2020/12/26 10:07:21;;;;;;;9.35;5.03;;;;;;;4.14;86.12;101058.08;1835942;77;21443;-54
2020/12/26 10:09:49;;;;;;;9.55;5.40;;;;;;;4.12;84.73;101054.08;1839234;77;21416;-53
2020/12/26 10:12:16;;;;;;;9.53;4.85;;;;;;;4.13;85.42;101053.66;1840374;77;21074;-54
2020/12/26 10:14:46;;;;;;;7.22;4.12;;;;;;;4.16;86.04;101054.97;1839492;77;21129;-54
2020/12/26 10:17:15;;;;;;;6.08;4.10;;;;;;;4.21;86.07;101066.45;1836105;77;20966;-54
2020/12/26 10:19:43;;;;;;;5.92;4.58;;;;;;;4.24;85.93;101062.45;1832960;77;21173;-53
2020/12/26 10:22:13;;;;;;;6.92;4.50;;;;;;;4.26;85.74;101067.30;1841222;77;21321;-53
2020/12/26 10:24:40;;;;;;;8.08;4.17;;;;;;;4.27;85.16;101066.41;1840117;77;21122;-54
2020/12/26 10:27:08;;;;;;;7.33;3.40;;;;;;;4.26;84.56;101072.61;1815250;79;21058;-54
2020/12/26 10:29:35;;;;;;;7.85;4.37;;;;;;;4.24;84.71;101074.39;1815203;79;21034;-54
2020/12/26 10:32:04;;;;;;;7.90;3.95;;;;;;;4.28;84.63;101072.62;1815189;79;21058;-54
2020/12/26 10:34:34;;;;;;;6.40;4.15;;;;;;;4.29;84.44;101085.87;1815146;78;21482;-54
2020/12/26 10:37:01;;;;;;;6.55;4.33;;;;;;;4.30;84.59;101082.33;1815134;79;21165;-53
2020/12/26 10:39:29;;;;;;;8.38;4.67;;;;;;;4.30;84.12;101083.65;1815099;79;21148;-54
2020/12/26 10:41:58;;;;;;;11.10;4.28;;;;;;;4.29;84.42;101079.69;1815171;79;20923;-54
2020/12/26 10:44:26;;;;;;;5.80;4.22;;;;;;;4.32;84.66;101083.66;1815241;79;21050;-54
2020/12/26 10:46:54;;;;;;;6.50;4.55;;;;;;;4.35;84.28;101077.01;1815173;79;21359;-53
2020/12/26 10:49:21;;;;;;;5.33;3.75;;;;;;;4.42;84.45;101084.08;1815123;79;20986;-55
2020/12/26 10:51:49;;;;;;;5.20;3.52;;;;;;;4.51;84.14;101088.90;1815185;79;21041;-52
2020/12/26 10:54:17;;;;;;;5.70;3.62;;;;;;;4.54;83.61;101089.78;1815175;79;20907;-54
2020/12/26 10:56:48;;;;;;;6.37;4.20;;;;;;;4.52;82.74;101084.89;1815226;79;20919;-54
2020/12/26 10:59:16;;;;;;;8.40;4.30;;;;;;;4.51;83.21;101077.81;1817465;77;21354;-54
2020/12/26 11:01:44;;;;;;;7.42;4.08;;;;;;;4.50;82.98;101084.48;1818437;78;21105;-54
2020/12/26 11:04:11;;;;;;;8.38;3.72;;;;;;;4.47;83.20;101089.34;1818302;78;20987;-53
2020/12/26 11:06:39;;;;;;;5.67;3.92;;;;;;;4.45;83.22;101076.52;1818280;78;21034;-54
2020/12/26 11:09:06;;;;;;;5.58;3.65;;;;;;;4.45;83.28;101073.87;1818366;78;21050;-53
2020/12/26 11:11:34;;;;;;;6.83;3.50;;;;;;;4.44;83.15;101085.38;1818314;78;21260;-54
2020/12/26 11:14:01;;;;;;;6.65;3.60;;;;;;;4.41;83.24;101085.39;1818187;78;21141;-54
2020/12/26 11:16:29;;;;;;;7.45;3.60;;;;;;;4.43;83.43;101083.62;1818365;78;20963;-54
2020/12/26 11:18:57;;;;;;;7.92;4.12;;;;;;;4.41;83.47;101069.00;1818316;78;20943;-55
2020/12/26 11:21:25;;;;;;;8.50;3.70;;;;;;;4.43;83.72;101080.96;1818305;78;21058;-54
2020/12/26 11:23:52;;;;;;;6.50;3.83;;;;;;;4.43;83.69;101081.86;1818347;78;21380;-54
2020/12/26 11:26:22;;;;;;;6.20;4.28;;;;;;;4.44;83.54;101082.73;1817166;78;21121;-54
2020/12/26 11:28:50;;;;;;;9.43;4.75;;;;;;;4.40;83.47;101086.28;1818268;78;20991;-54
2020/12/26 11:31:22;;;;;;;7.70;4.10;;;;;;;4.37;83.39;101069.05;1818335;78;20964;-53
2020/12/26 11:33:50;;;;;;;7.72;4.17;;;;;;;4.36;83.18;101064.17;1818519;78;20967;-54
2020/12/26 11:36:25;;;;;;;7.50;4.25;;;;;;;4.36;83.25;101065.95;1818410;78;21501;-54
2020/12/26 11:38:53;;;;;;;5.47;3.87;;;;;;;4.37;83.11;101053.13;1818343;78;20986;-53
2020/12/26 11:41:25;;;;;;;8.65;3.90;;;;;;;4.39;83.46;101048.69;1818249;78;20962;-54
2020/12/26 11:43:54;;;;;;;6.40;3.67;;;;;;;4.42;83.54;101050.89;1818244;78;21152;-54